Time;durP1;ratioP1;P1;durP2;ratioP2;P2;SDS_P1;SDS_P2;PMS_P1;PMS_P2;Temp;Humidity;BMP_temperature;BMP_pressure;BME280_temperature;BME280_humidity;BME280_pressure;Samples;Min_cycle;Max_cycle;Signal;HPM_P1;HPM_P2
2022/04/20 00:01:26;;;;;;;1.80;0.90;;;13.60;39.90;;;;;;4973399;28;20182;-76
2022/04/20 00:03:51;;;;;;;2.30;0.93;;;13.50;39.80;;;;;;4975991;28;20209;-75
2022/04/20 00:06:17;;;;;;;1.40;0.73;;;13.50;40.10;;;;;;4985336;28;20269;-76
2022/04/20 00:08:43;;;;;;;2.03;1.20;;;13.50;40.50;;;;;;4993510;28;20685;-77
2022/04/20 00:11:09;;;;;;;2.70;1.07;;;13.50;40.40;;;;;;4993402;28;21074;-76
2022/04/20 00:13:35;;;;;;;1.50;0.90;;;13.40;40.80;;;;;;4993622;28;20197;-76
2022/04/20 00:16:01;;;;;;;2.28;0.90;;;13.40;40.10;;;;;;4992758;28;20581;-75
2022/04/20 00:18:27;;;;;;;1.90;1.10;;;13.40;40.00;;;;;;4992986;28;20163;-75
2022/04/20 00:20:53;;;;;;;2.17;1.00;;;13.40;40.50;;;;;;4992870;28;20665;-76
2022/04/20 00:23:18;;;;;;;2.23;0.93;;;13.40;40.10;;;;;;4993012;28;20601;-76
2022/04/20 00:25:45;;;;;;;3.58;1.00;;;13.30;40.10;;;;;;4993125;28;20171;-75
2022/04/20 00:28:10;;;;;;;1.70;0.80;;;13.30;40.20;;;;;;4978191;28;20207;-75
2022/04/20 00:30:36;;;;;;;1.83;0.90;;;13.30;40.30;;;;;;4990896;28;20199;-76
2022/04/20 00:33:02;;;;;;;2.37;0.90;;;13.20;40.50;;;;;;4992504;28;20562;-75
2022/04/20 00:35:28;;;;;;;1.75;0.80;;;13.20;40.40;;;;;;4991049;28;20183;-75
2022/04/20 00:37:54;;;;;;;1.80;1.00;;;13.20;41.20;;;;;;4992037;28;20257;-76
2022/04/20 00:40:20;;;;;;;1.50;1.05;;;13.10;40.50;;;;;;4990992;28;20661;-75
2022/04/20 00:42:48;;;;;;;3.35;1.00;;;13.10;40.70;;;;;;4991714;28;20167;-75
2022/04/20 00:45:14;;;;;;;2.88;0.90;;;13.10;40.70;;;;;;4983925;28;20582;-75
2022/04/20 00:47:45;;;;;;;1.40;0.80;;;13.10;40.80;;;;;;4966076;28;20285;-76
2022/04/20 00:50:15;;;;;;;2.33;1.00;;;13.00;40.80;;;;;;4974457;28;20181;-76
2022/04/20 00:52:41;;;;;;;3.63;0.90;;;13.00;40.70;;;;;;4989371;28;20168;-76
2022/04/20 00:55:10;;;;;;;1.70;0.80;;;13.00;40.70;;;;;;4966272;28;21106;-76
2022/04/20 00:57:36;;;;;;;2.15;1.23;;;13.00;40.80;;;;;;4982448;28;20175;-76
2022/04/20 01:00:03;;;;;;;1.83;0.93;;;13.00;40.70;;;;;;4987839;28;20174;-76
2022/04/20 01:02:35;;;;;;;1.73;0.80;;;12.90;41.20;;;;;;4965106;28;20187;-76
2022/04/20 01:05:01;;;;;;;1.63;0.97;;;12.90;40.80;;;;;;4990484;28;20187;-76
2022/04/20 01:07:41;;;;;;;1.77;0.75;;;12.90;41.10;;;;;;4985426;28;20211;-76
2022/04/20 01:10:25;;;;;;;1.70;1.10;;;12.90;40.90;;;;;;4984043;28;20178;-76
2022/04/20 01:13:06;;;;;;;1.88;0.80;;;12.80;41.10;;;;;;4990854;28;20566;-76
2022/04/20 01:15:48;;;;;;;2.35;1.00;;;12.80;41.00;;;;;;4992013;28;20175;-76
2022/04/20 01:18:21;;;;;;;1.90;1.00;;;12.70;41.00;;;;;;4990282;28;20179;-77
2022/04/20 01:21:06;;;;;;;3.70;0.80;;;12.70;41.00;;;;;;4991686;28;20170;-77
2022/04/20 01:23:46;;;;;;;2.35;1.00;;;12.70;40.90;;;;;;4984858;28;20199;-76
2022/04/20 01:26:14;;;;;;;2.10;0.85;;;12.60;41.10;;;;;;4986165;28;20179;-76
2022/04/20 01:28:53;;;;;;;2.22;0.80;;;12.60;41.00;;;;;;4988499;28;20198;-76
2022/04/20 01:31:55;;;;;;;2.75;0.90;;;12.60;41.10;;;;;;4950393;29;20514;-76
2022/04/20 01:34:29;;;;;;;1.52;0.93;;;12.60;41.00;;;;;;4952015;28;20265;-77
2022/04/20 01:36:55;;;;;;;3.80;1.33;;;12.50;41.10;;;;;;4971153;28;20640;-76
2022/04/20 01:39:21;;;;;;;2.10;0.80;;;12.50;41.00;;;;;;4954605;28;20175;-76
2022/04/20 01:41:48;;;;;;;1.80;1.00;;;12.50;41.20;;;;;;4970553;28;20968;-76
2022/04/20 01:44:14;;;;;;;1.77;1.00;;;12.50;41.60;;;;;;4971194;28;20200;-76
2022/04/20 01:46:47;;;;;;;1.40;0.80;;;12.50;41.60;;;;;;4972275;28;20176;-77
2022/04/20 01:49:31;;;;;;;3.40;1.42;;;12.40;41.80;;;;;;4971888;28;20606;-77
2022/04/20 01:52:17;;;;;;;1.63;0.80;;;12.40;41.60;;;;;;4972199;28;20188;-77
2022/04/20 01:54:58;;;;;;;1.55;0.90;;;12.40;41.80;;;;;;4974692;28;20266;-77
2022/04/20 01:58:00;;;;;;;2.75;0.90;;;12.40;41.90;;;;;;4974294;28;20536;-77
2022/04/20 02:00:45;;;;;;;2.08;1.10;;;12.40;41.60;;;;;;4975524;28;20167;-77
2022/04/20 02:03:40;;;;;;;3.78;1.20;;;12.30;41.60;;;;;;4974405;28;20208;-77
2022/04/20 02:06:10;;;;;;;1.75;0.80;;;12.30;42.10;;;;;;4985329;28;20182;-77
2022/04/20 02:08:47;;;;;;;3.10;1.00;;;12.20;42.00;;;;;;4993289;28;20214;-77
2022/04/20 02:11:21;;;;;;;1.80;0.80;;;12.20;41.80;;;;;;4995158;28;20179;-77
2022/04/20 02:13:53;;;;;;;2.90;1.00;;;12.20;41.90;;;;;;4994000;28;20195;-77
2022/04/20 02:16:18;;;;;;;1.50;0.93;;;12.10;42.10;;;;;;4994538;28;20178;-77
2022/04/20 02:19:07;;;;;;;3.03;1.20;;;12.00;42.90;;;;;;4994746;28;20568;-77
2022/04/20 02:21:38;;;;;;;2.28;0.77;;;11.90;42.30;;;;;;4993705;28;20258;-77
2022/04/20 02:24:04;;;;;;;3.17;0.93;;;11.90;42.20;;;;;;4977336;28;20301;-76
2022/04/20 02:26:30;;;;;;;2.27;1.10;;;11.90;42.20;;;;;;4993747;28;20179;-77
2022/04/20 02:28:56;;;;;;;3.03;1.30;;;11.80;42.10;;;;;;4994323;28;20725;-77
2022/04/20 02:31:22;;;;;;;1.50;0.90;;;11.80;42.20;;;;;;4993738;28;20178;-77
2022/04/20 02:33:47;;;;;;;1.73;1.20;;;11.80;42.50;;;;;;4977751;28;20645;-77
2022/04/20 02:36:13;;;;;;;2.17;1.13;;;11.70;42.40;;;;;;4993839;28;20958;-77
2022/04/20 02:38:39;;;;;;;2.33;1.23;;;11.70;42.50;;;;;;4990782;28;20294;-77
2022/04/20 02:41:05;;;;;;;2.90;1.08;;;11.70;42.50;;;;;;4983350;28;20180;-77
2022/04/20 02:43:32;;;;;;;1.60;1.10;;;11.70;42.70;;;;;;4991396;28;20198;-77
2022/04/20 02:45:57;;;;;;;1.73;1.17;;;11.70;42.60;;;;;;4994328;28;20234;-76
2022/04/20 02:48:23;;;;;;;1.80;1.10;;;11.70;43.20;;;;;;4994084;28;20202;-77
2022/04/20 02:50:49;;;;;;;1.70;0.93;;;11.60;43.30;;;;;;4976843;28;20606;-77
2022/04/20 02:53:15;;;;;;;1.60;0.90;;;11.60;42.80;;;;;;4993016;28;20183;-77
2022/04/20 02:55:44;;;;;;;1.67;0.90;;;11.60;43.30;;;;;;4993354;28;20624;-77
2022/04/20 02:58:11;;;;;;;3.28;1.42;;;11.50;43.20;;;;;;4976523;28;20171;-77
2022/04/20 03:00:39;;;;;;;1.83;0.95;;;11.50;43.50;;;;;;4992562;28;20178;-77
2022/04/20 03:03:20;;;;;;;1.65;1.02;;;11.50;42.90;;;;;;4993044;28;20222;-77
2022/04/20 03:05:48;;;;;;;1.83;0.90;;;11.50;43.50;;;;;;4975974;28;20265;-77
2022/04/20 03:08:14;;;;;;;4.60;1.25;;;11.50;43.10;;;;;;4981781;28;20207;-78
2022/04/20 03:10:40;;;;;;;2.00;1.20;;;11.50;43.80;;;;;;4967524;28;20167;-75
2022/04/20 03:13:07;;;;;;;1.60;1.15;;;11.40;43.80;;;;;;4992952;28;20198;-75
2022/04/20 03:15:33;;;;;;;4.93;1.00;;;11.40;44.20;;;;;;4992701;28;20167;-76
2022/04/20 03:18:01;;;;;;;1.90;1.10;;;11.40;43.70;;;;;;4972690;28;20183;-77
2022/04/20 03:20:27;;;;;;;2.28;1.30;;;11.40;43.70;;;;;;4968145;28;20647;-76
2022/04/20 03:22:53;;;;;;;1.80;0.90;;;11.40;44.10;;;;;;4978881;28;20280;-76
2022/04/20 03:25:19;;;;;;;1.70;1.10;;;11.40;43.90;;;;;;4970413;28;20266;-76
2022/04/20 03:27:54;;;;;;;2.80;1.10;;;11.30;44.20;;;;;;4986829;28;20206;-76
2022/04/20 03:30:21;;;;;;;1.92;1.20;;;11.30;43.70;;;;;;4981992;28;20179;-75
2022/04/20 03:32:47;;;;;;;2.45;1.30;;;11.30;43.80;;;;;;4994049;28;20607;-76
2022/04/20 03:35:14;;;;;;;1.70;1.00;;;11.30;43.80;;;;;;4983380;28;20179;-76
2022/04/20 03:37:40;;;;;;;2.25;1.30;;;11.30;45.30;;;;;;4998982;28;20170;-76
2022/04/20 03:40:08;;;;;;;2.05;1.10;;;11.30;45.10;;;;;;4995921;28;20198;-76
2022/04/20 03:42:34;;;;;;;2.05;0.90;;;11.20;44.20;;;;;;4995157;28;20190;-76
2022/04/20 03:45:01;;;;;;;1.73;1.00;;;11.20;44.50;;;;;;4994518;28;20569;-76
2022/04/20 03:47:27;;;;;;;2.20;1.00;;;11.20;44.20;;;;;;4993673;28;20182;-76
2022/04/20 03:49:54;;;;;;;1.88;1.00;;;11.20;44.10;;;;;;4993155;28;20167;-74
2022/04/20 03:52:20;;;;;;;2.77;1.53;;;11.20;44.60;;;;;;4993367;28;20241;-76
2022/04/20 03:54:47;;;;;;;1.80;1.10;;;11.20;44.20;;;;;;4992170;28;20606;-77
2022/04/20 03:57:13;;;;;;;4.70;1.10;;;11.20;44.20;;;;;;4992256;28;20222;-76
2022/04/20 03:59:42;;;;;;;2.20;1.13;;;11.20;44.20;;;;;;4991283;28;20164;-76
2022/04/20 04:02:08;;;;;;;2.95;1.15;;;11.10;44.70;;;;;;4975747;28;20159;-76
2022/04/20 04:04:40;;;;;;;1.70;1.10;;;11.10;44.30;;;;;;4991846;28;20225;-76
2022/04/20 04:07:16;;;;;;;2.22;1.10;;;11.10;44.30;;;;;;4991848;28;20277;-76
2022/04/20 04:09:42;;;;;;;1.88;0.82;;;11.10;44.90;;;;;;4991040;28;20185;-76
2022/04/20 04:12:09;;;;;;;1.60;0.98;;;11.10;44.60;;;;;;4975500;28;20242;-75
2022/04/20 04:14:44;;;;;;;1.80;1.10;;;11.00;44.80;;;;;;4975400;28;20213;-75
2022/04/20 04:17:10;;;;;;;2.55;1.05;;;11.00;44.50;;;;;;4974452;28;20266;-76
2022/04/20 04:19:37;;;;;;;1.60;0.95;;;11.00;45.00;;;;;;4990892;28;20167;-76
2022/04/20 04:22:05;;;;;;;2.70;1.08;;;11.00;45.00;;;;;;4991534;28;20240;-76
2022/04/20 04:24:36;;;;;;;2.35;1.30;;;11.00;44.90;;;;;;4991610;28;20589;-75
2022/04/20 04:27:09;;;;;;;2.83;1.00;;;11.00;44.80;;;;;;4991353;28;20644;-75
2022/04/20 04:29:38;;;;;;;1.50;0.90;;;11.00;44.90;;;;;;4990952;28;20183;-76
2022/04/20 04:32:06;;;;;;;1.70;0.88;;;11.00;44.80;;;;;;4975273;28;20282;-76
2022/04/20 04:34:33;;;;;;;2.40;1.00;;;11.00;44.80;;;;;;4991018;28;20325;-76
2022/04/20 04:37:04;;;;;;;1.80;1.08;;;11.00;44.90;;;;;;4991701;28;20210;-76
2022/04/20 04:39:30;;;;;;;1.67;1.00;;;11.00;45.00;;;;;;4991086;28;20194;-76
2022/04/20 04:41:59;;;;;;;1.70;0.98;;;11.00;44.90;;;;;;4990798;28;20198;-75
2022/04/20 04:44:25;;;;;;;1.73;1.10;;;11.00;45.00;;;;;;4991427;28;20788;-76
2022/04/20 04:49:51;;;;;;;4.60;1.02;;;11.00;45.20;;;;;;4987002;28;20182;-77
2022/04/20 04:52:17;;;;;;;2.77;1.13;;;11.10;45.10;;;;;;4976037;28;20533;-76
2022/04/20 04:54:49;;;;;;;1.88;0.80;;;11.10;45.70;;;;;;4971773;28;20353;-76
2022/04/20 04:57:15;;;;;;;2.10;1.00;;;11.00;45.10;;;;;;4971975;28;20546;-76
2022/04/20 04:59:43;;;;;;;1.60;0.90;;;11.10;45.40;;;;;;4971062;28;20171;-75
2022/04/20 05:02:10;;;;;;;1.77;1.10;;;11.10;45.50;;;;;;4955513;28;21324;-76
2022/04/20 05:04:39;;;;;;;1.63;0.98;;;11.10;45.30;;;;;;4971412;28;20667;-76
2022/04/20 05:07:07;;;;;;;2.88;1.00;;;11.10;45.70;;;;;;4971915;28;20586;-76
2022/04/20 05:09:44;;;;;;;1.95;1.08;;;11.10;45.50;;;;;;4954912;28;20254;-76
2022/04/20 05:12:10;;;;;;;3.05;1.00;;;11.10;45.30;;;;;;4971573;28;20172;-76
2022/04/20 05:14:39;;;;;;;2.95;1.05;;;11.20;46.10;;;;;;4955754;28;20187;-76
2022/04/20 05:17:05;;;;;;;2.90;1.15;;;11.20;46.00;;;;;;4955288;28;20247;-76
2022/04/20 05:19:31;;;;;;;3.07;1.07;;;11.20;45.70;;;;;;4970954;28;20774;-76
2022/04/20 05:22:03;;;;;;;1.90;1.00;;;11.20;45.70;;;;;;4971419;28;20965;-77
2022/04/20 05:24:35;;;;;;;2.90;1.23;;;11.20;45.60;;;;;;4971044;28;20203;-77
2022/04/20 05:27:04;;;;;;;2.75;1.30;;;11.30;45.80;;;;;;4971743;28;20175;-77
2022/04/20 05:29:40;;;;;;;3.05;1.02;;;11.40;45.80;;;;;;4973969;28;20183;-77
2022/04/20 05:32:08;;;;;;;3.90;1.10;;;11.40;46.10;;;;;;4975247;28;20699;-77
2022/04/20 05:34:36;;;;;;;3.67;1.52;;;11.40;46.30;;;;;;4974993;28;20565;-77
2022/04/20 05:42:47;;;;;;;1.98;1.10;;;11.60;46.10;;;;;;4970614;28;20685;-77
2022/04/20 05:45:12;;;;;;;3.07;1.33;;;11.70;45.90;;;;;;4961784;28;20275;-77
2022/04/20 05:47:42;;;;;;;2.28;1.20;;;11.70;46.20;;;;;;4981498;28;20600;-76
2022/04/20 05:50:09;;;;;;;4.78;1.20;;;11.80;46.20;;;;;;4990729;28;20226;-76
2022/04/20 05:52:34;;;;;;;2.40;1.10;;;11.80;46.70;;;;;;4991178;28;20640;-77
2022/04/20 05:55:02;;;;;;;3.65;1.10;;;11.90;46.10;;;;;;4988990;28;20275;-75
2022/04/20 05:57:28;;;;;;;3.67;1.20;;;12.00;46.10;;;;;;4973862;28;20562;-75
2022/04/20 05:59:54;;;;;;;3.93;1.73;;;12.00;46.00;;;;;;4973950;28;20164;-75
2022/04/20 06:02:20;;;;;;;3.10;1.65;;;12.10;46.10;;;;;;4958465;28;20686;-75
2022/04/20 06:04:47;;;;;;;3.70;1.30;;;12.20;45.90;;;;;;4980310;28;20215;-75
2022/04/20 06:07:29;;;;;;;2.75;1.25;;;12.30;46.00;;;;;;4971515;28;20249;-74
2022/04/20 06:10:22;;;;;;;3.92;1.42;;;12.30;46.10;;;;;;4974255;28;20168;-74
2022/04/20 06:12:56;;;;;;;1.80;1.10;;;12.40;46.20;;;;;;4971909;28;20663;-75
2022/04/20 06:15:38;;;;;;;2.38;1.30;;;12.50;46.00;;;;;;4975297;28;20226;-75
2022/04/20 06:18:24;;;;;;;3.50;1.13;;;12.60;46.10;;;;;;4955625;28;20179;-74
2022/04/20 06:21:13;;;;;;;3.25;1.00;;;12.70;46.00;;;;;;4954698;28;20231;-74
2022/04/20 06:24:04;;;;;;;2.05;1.00;;;12.90;46.00;;;;;;4965013;28;20586;-74
2022/04/20 06:26:43;;;;;;;2.67;1.02;;;13.00;46.00;;;;;;4959471;28;20183;-73
2022/04/20 06:29:39;;;;;;;1.90;1.10;;;13.30;46.40;;;;;;4980064;28;20195;-73
2022/04/20 06:32:25;;;;;;;1.92;0.90;;;14.20;47.80;;;;;;4964133;28;20530;-74
2022/04/20 06:35:42;;;;;;;3.40;0.93;;;15.30;48.40;;;;;;4967574;28;20326;-74
2022/04/20 06:38:30;;;;;;;2.17;0.90;;;16.60;48.40;;;;;;4974109;28;20699;-74
2022/04/20 06:41:06;;;;;;;2.90;1.10;;;17.90;48.60;;;;;;4956305;28;20571;-74
2022/04/20 06:43:53;;;;;;;1.70;1.00;;;19.00;47.60;;;;;;4957333;28;20591;-74
2022/04/20 06:46:34;;;;;;;4.10;1.30;;;20.00;46.30;;;;;;4973509;28;20637;-73
2022/04/20 06:49:03;;;;;;;5.73;1.10;;;20.70;45.20;;;;;;4974272;28;20751;-74
2022/04/20 07:00:11;;;;;;;2.43;0.80;;;23.30;41.80;;;;;;4976192;28;20746;-74
2022/04/20 07:03:02;;;;;;;3.07;0.87;;;23.70;41.90;;;;;;4974426;28;20583;-73
2022/04/20 07:05:58;;;;;;;3.33;0.90;;;24.40;40.50;;;;;;4972880;28;20633;-74
2022/04/20 07:08:36;;;;;;;2.90;1.00;;;25.10;40.30;;;;;;4961550;28;20649;-74
2022/04/20 07:11:08;;;;;;;2.70;0.90;;;25.40;38.80;;;;;;4955202;28;20591;-74
2022/04/20 07:13:36;;;;;;;1.97;1.10;;;25.60;39.60;;;;;;4952609;28;20640;-74
2022/04/20 07:16:01;;;;;;;1.67;0.87;;;25.90;37.00;;;;;;4953474;28;20568;-74
2022/04/20 07:18:31;;;;;;;3.07;1.30;;;26.00;37.50;;;;;;4972531;28;20172;-74
2022/04/20 07:21:00;;;;;;;1.50;0.93;;;26.30;37.40;;;;;;4973554;28;20570;-74
2022/04/20 07:23:54;;;;;;;1.63;0.83;;;26.40;36.60;;;;;;4904073;28;20725;-74
2022/04/20 07:26:39;;;;;;;3.97;1.00;;;26.90;36.70;;;;;;4973584;28;20579;-74
2022/04/20 07:29:23;;;;;;;1.47;0.80;;;27.10;34.60;;;;;;4955648;28;20649;-74
2022/04/20 07:32:05;;;;;;;1.93;0.90;;;27.40;34.80;;;;;;4974057;28;20571;-74
2022/04/20 07:34:50;;;;;;;4.93;1.03;;;27.60;35.30;;;;;;4939960;28;20619;-74
2022/04/20 07:37:38;;;;;;;1.43;0.80;;;27.50;33.50;;;;;;4972330;28;20730;-74
2022/04/20 07:40:20;;;;;;;4.93;2.60;;;27.40;32.60;;;;;;4973185;28;20674;-74
2022/04/20 07:42:54;;;;;;;4.30;3.93;;;27.30;32.90;;;;;;4972555;28;20951;-74
2022/04/20 07:45:25;;;;;;;5.33;5.03;;;27.20;32.40;;;;;;4973523;28;20567;-73
2022/04/20 07:48:23;;;;;;;3.43;3.00;;;27.30;33.00;;;;;;4959052;28;21202;-74
2022/04/20 07:51:07;;;;;;;3.07;1.53;;;27.50;32.80;;;;;;4972953;28;20571;-74
2022/04/20 07:53:54;;;;;;;3.03;1.33;;;27.70;33.00;;;;;;4955959;28;20695;-75
2022/04/20 07:56:20;;;;;;;3.30;0.83;;;28.30;33.70;;;;;;4973874;28;20682;-75
2022/04/20 07:59:01;;;;;;;4.20;1.20;;;28.70;32.00;;;;;;4956353;28;20168;-74
2022/04/20 08:01:50;;;;;;;2.50;0.90;;;28.60;32.10;;;;;;4936497;28;20583;-75
2022/04/20 08:04:34;;;;;;;1.70;0.80;;;28.90;31.40;;;;;;4973158;28;20878;-75
2022/04/20 08:07:07;;;;;;;1.60;0.70;;;29.00;31.80;;;;;;4972183;28;20575;-75
2022/04/20 08:09:35;;;;;;;1.70;0.73;;;29.20;30.20;;;;;;4971052;28;20922;-74
2022/04/20 08:12:01;;;;;;;2.07;1.10;;;29.30;30.80;;;;;;4973061;28;20568;-73
2022/04/20 08:14:26;;;;;;;2.47;0.90;;;29.40;30.50;;;;;;4970982;28;20207;-74
2022/04/20 08:17:03;;;;;;;1.80;0.87;;;29.30;29.40;;;;;;4983852;28;20185;-74
2022/04/20 08:19:29;;;;;;;1.80;0.90;;;29.10;28.70;;;;;;4972359;28;20720;-74
2022/04/20 08:22:07;;;;;;;4.60;1.13;;;28.70;28.70;;;;;;4971139;28;20593;-74
2022/04/20 08:24:33;;;;;;;2.00;0.93;;;28.50;27.80;;;;;;4979133;28;20611;-74
2022/04/20 08:26:59;;;;;;;1.70;0.83;;;27.90;28.20;;;;;;4955269;28;20183;-74
2022/04/20 08:29:25;;;;;;;2.90;0.90;;;27.80;28.60;;;;;;4952340;28;20624;-74
2022/04/20 08:31:50;;;;;;;2.00;0.90;;;27.50;28.70;;;;;;4953014;28;20621;-74
2022/04/20 08:34:16;;;;;;;2.63;0.90;;;27.50;29.20;;;;;;4953488;28;20487;-74
2022/04/20 08:36:42;;;;;;;2.60;0.90;;;27.70;29.50;;;;;;4963037;28;20589;-74
2022/04/20 08:39:07;;;;;;;2.90;1.00;;;28.10;30.00;;;;;;4973100;28;20171;-74
2022/04/20 08:41:34;;;;;;;1.47;0.87;;;28.30;29.00;;;;;;4973033;28;20234;-74
2022/04/20 08:44:02;;;;;;;1.70;0.90;;;28.00;28.70;;;;;;4972072;28;20202;-74
2022/04/20 08:46:36;;;;;;;1.60;0.80;;;28.00;28.80;;;;;;4970692;28;20704;-74
2022/04/20 08:49:03;;;;;;;2.87;0.70;;;28.10;28.50;;;;;;4970963;28;20630;-74
2022/04/20 08:52:37;;;;;;;4.33;0.83;;;28.20;28.40;;;;;;4972398;28;20565;-74
2022/04/20 08:54:17;;;;;;;2.53;1.00;;;28.50;28.90;;;;;;4972519;28;21146;-74
2022/04/20 08:59:28;;;;;;;1.70;0.90;;;28.90;28.20;;;;;;4972220;28;20654;-74
2022/04/20 09:01:54;;;;;;;1.60;0.80;;;28.80;27.20;;;;;;4975824;28;20568;-76
2022/04/20 09:04:20;;;;;;;2.20;1.00;;;28.70;27.60;;;;;;4972321;28;21536;-76
2022/04/20 09:06:46;;;;;;;2.37;0.80;;;28.90;28.30;;;;;;4955658;28;20593;-76
2022/04/20 09:09:13;;;;;;;2.90;0.80;;;29.40;28.80;;;;;;4972107;28;20698;-75
2022/04/20 09:11:40;;;;;;;2.03;1.20;;;30.00;28.90;;;;;;4970964;28;20213;-76
2022/04/20 09:14:13;;;;;;;3.07;0.90;;;30.50;27.80;;;;;;4971174;28;20603;-75
2022/04/20 09:16:41;;;;;;;1.77;0.90;;;30.60;27.40;;;;;;4972186;28;20601;-75
2022/04/20 09:19:07;;;;;;;1.70;0.90;;;30.80;28.00;;;;;;4971798;28;20594;-76
2022/04/20 09:21:34;;;;;;;3.73;1.13;;;31.10;27.60;;;;;;4972149;28;20591;-75
2022/04/20 09:24:07;;;;;;;1.80;0.73;;;31.40;27.10;;;;;;4971241;28;20759;-76
2022/04/20 09:26:33;;;;;;;1.90;0.80;;;31.80;27.60;;;;;;4972347;28;21010;-75
2022/04/20 09:29:10;;;;;;;3.37;0.90;;;31.80;27.10;;;;;;4970722;28;20622;-75
2022/04/20 09:31:43;;;;;;;2.53;0.90;;;31.90;26.70;;;;;;4971959;28;20574;-75
2022/04/20 09:34:09;;;;;;;1.83;0.80;;;32.00;26.00;;;;;;4972371;28;20653;-75
2022/04/20 09:36:49;;;;;;;2.07;0.70;;;32.00;27.10;;;;;;4970955;28;20600;-74
2022/04/20 09:39:15;;;;;;;1.40;0.80;;;32.40;27.30;;;;;;4971355;28;20184;-75
2022/04/20 09:42:01;;;;;;;1.50;0.80;;;32.70;27.00;;;;;;4979486;28;20589;-75
2022/04/20 09:44:27;;;;;;;2.10;0.80;;;32.90;25.90;;;;;;4954445;28;20708;-75
2022/04/20 09:50:00;;;;;;;2.03;0.80;;;32.60;26.40;;;;;;4971534;28;20624;-75
2022/04/20 09:52:43;;;;;;;3.00;0.70;;;33.00;24.90;;;;;;4972180;28;20678;-75
2022/04/20 09:55:13;;;;;;;1.83;0.80;;;33.10;26.10;;;;;;4972095;28;20677;-75
2022/04/20 09:57:40;;;;;;;2.63;1.00;;;32.70;25.00;;;;;;4971820;28;20564;-75
2022/04/20 10:00:11;;;;;;;1.63;1.00;;;32.60;25.10;;;;;;4971643;28;20568;-75
2022/04/20 10:02:53;;;;;;;2.47;1.00;;;32.80;25.70;;;;;;4971652;28;20723;-75
2022/04/20 10:05:21;;;;;;;2.37;1.03;;;32.70;25.40;;;;;;4970632;28;20587;-75
2022/04/20 10:07:47;;;;;;;1.60;1.10;;;32.50;25.00;;;;;;4971442;28;20615;-77
2022/04/20 10:10:13;;;;;;;1.63;0.80;;;32.30;25.50;;;;;;4971489;28;21264;-76
2022/04/20 10:12:41;;;;;;;1.60;0.80;;;32.40;25.50;;;;;;4974290;28;20177;-76
2022/04/20 10:17:56;;;;;;;1.63;0.73;;;32.90;26.00;;;;;;4967391;28;20600;-76
2022/04/20 10:20:26;;;;;;;1.37;0.70;;;33.00;25.00;;;;;;4982930;28;20950;-76
2022/04/20 10:22:54;;;;;;;1.50;0.93;;;32.90;25.30;;;;;;4975456;28;20579;-76
2022/04/20 10:25:20;;;;;;;1.90;0.80;;;32.60;24.30;;;;;;4973502;28;20615;-76
2022/04/20 10:28:03;;;;;;;2.23;0.97;;;32.30;24.50;;;;;;4974223;28;20705;-76
2022/04/20 10:30:42;;;;;;;2.87;0.80;;;31.80;24.00;;;;;;4974531;28;20586;-75
2022/04/20 10:33:12;;;;;;;3.13;0.90;;;31.30;24.00;;;;;;4974169;28;20598;-75
2022/04/20 10:35:57;;;;;;;2.37;0.80;;;31.10;24.50;;;;;;4973157;28;20610;-75
2022/04/20 10:38:25;;;;;;;2.53;0.80;;;31.00;25.00;;;;;;4970646;28;20609;-74
2022/04/20 10:41:13;;;;;;;2.13;0.83;;;31.10;24.90;;;;;;4974873;28;20586;-74
2022/04/20 10:43:44;;;;;;;1.43;0.87;;;31.00;24.60;;;;;;4953574;28;20592;-74
2022/04/20 10:46:20;;;;;;;2.07;0.80;;;30.50;24.40;;;;;;4961592;28;20921;-74
2022/04/20 10:48:58;;;;;;;2.40;0.70;;;30.10;24.50;;;;;;4947942;28;20623;-74
2022/04/20 10:51:30;;;;;;;1.90;0.80;;;29.60;24.60;;;;;;4974316;28;20575;-74
2022/04/20 10:54:22;;;;;;;3.77;0.90;;;29.00;24.60;;;;;;4972642;28;20593;-74
2022/04/20 10:57:05;;;;;;;5.77;1.30;;;28.90;25.10;;;;;;4981240;28;20737;-74
2022/04/20 10:59:32;;;;;;;6.30;1.10;;;28.90;24.90;;;;;;4972625;28;20570;-74
2022/04/20 11:02:03;;;;;;;2.20;0.77;;;29.00;25.60;;;;;;4974183;28;20722;-74
2022/04/20 11:04:39;;;;;;;2.87;1.17;;;28.90;25.70;;;;;;4974353;28;20606;-74
2022/04/20 11:07:08;;;;;;;1.57;0.80;;;28.90;25.20;;;;;;4939674;28;20638;-73
2022/04/20 11:09:45;;;;;;;1.47;0.77;;;28.90;25.60;;;;;;4972355;28;20627;-73
2022/04/20 11:21:03;;;;;;;2.93;0.80;;;28.80;25.30;;;;;;4972615;28;20575;-74
2022/04/20 11:24:05;;;;;;;1.33;0.63;;;28.60;25.00;;;;;;4962966;28;20607;-73
2022/04/20 11:26:31;;;;;;;2.70;0.97;;;28.30;24.90;;;;;;4926835;29;20671;-74
2022/04/20 11:29:15;;;;;;;1.40;0.80;;;28.00;25.20;;;;;;4946003;28;20643;-74
2022/04/20 11:31:51;;;;;;;1.60;1.00;;;27.70;25.40;;;;;;4979037;28;20176;-74
2022/04/20 11:34:21;;;;;;;1.53;0.80;;;27.70;26.00;;;;;;4973089;28;20643;-73
2022/04/20 11:36:49;;;;;;;1.87;1.00;;;27.70;25.70;;;;;;4979958;28;20626;-74
2022/04/20 11:39:16;;;;;;;2.13;0.80;;;27.70;26.20;;;;;;4973012;28;21169;-74
2022/04/20 11:41:50;;;;;;;1.50;0.80;;;27.70;26.30;;;;;;4973633;28;20642;-74
2022/04/20 11:44:27;;;;;;;2.63;1.00;;;27.70;26.50;;;;;;4972792;28;21305;-74
2022/04/20 11:47:07;;;;;;;2.20;0.80;;;27.70;26.20;;;;;;4984672;28;20625;-74
2022/04/20 11:49:42;;;;;;;1.50;0.90;;;27.80;26.60;;;;;;4992294;28;21018;-74
2022/04/20 11:52:11;;;;;;;1.70;1.00;;;27.90;26.40;;;;;;4992157;28;20570;-74
2022/04/20 11:54:45;;;;;;;1.40;0.80;;;28.00;26.20;;;;;;4991498;28;20633;-74
2022/04/20 11:57:17;;;;;;;3.00;1.00;;;28.00;26.80;;;;;;4990623;28;20604;-74
2022/04/20 11:59:47;;;;;;;1.60;0.77;;;28.10;26.80;;;;;;4982350;28;21056;-75
2022/04/20 12:02:15;;;;;;;1.50;0.80;;;28.20;26.60;;;;;;4971708;28;20187;-73
2022/04/20 12:04:42;;;;;;;2.27;0.90;;;28.10;26.40;;;;;;4980735;28;20627;-74
2022/04/20 12:07:09;;;;;;;1.87;0.87;;;28.10;26.10;;;;;;4973847;28;20618;-74
2022/04/20 12:09:38;;;;;;;2.10;0.90;;;28.00;26.40;;;;;;4962828;28;21328;-74
2022/04/20 12:12:08;;;;;;;1.40;0.70;;;27.80;26.00;;;;;;4972861;28;21015;-74
2022/04/20 12:14:38;;;;;;;1.70;0.77;;;27.60;26.50;;;;;;4972703;28;20954;-74
2022/04/20 12:17:13;;;;;;;1.50;0.70;;;27.50;26.20;;;;;;4972630;28;20642;-74
2022/04/20 12:19:44;;;;;;;1.50;0.90;;;27.40;26.70;;;;;;4955036;28;20563;-74
2022/04/20 12:22:12;;;;;;;1.93;0.77;;;27.40;26.80;;;;;;4955724;28;20630;-74
2022/04/20 12:24:40;;;;;;;16.73;1.77;;;27.40;26.80;;;;;;4972546;28;20636;-74
2022/04/20 12:27:20;;;;;;;1.77;0.83;;;27.30;26.90;;;;;;4972020;28;20575;-74
2022/04/20 12:29:57;;;;;;;3.03;0.87;;;27.00;26.40;;;;;;4971715;28;20615;-74
2022/04/20 12:32:34;;;;;;;2.53;1.10;;;26.70;26.40;;;;;;4955451;28;20566;-74
2022/04/20 12:35:05;;;;;;;2.50;0.80;;;26.50;26.50;;;;;;4972606;28;20677;-74
2022/04/20 12:37:39;;;;;;;1.60;0.80;;;26.40;26.60;;;;;;4953908;28;20609;-74
2022/04/20 12:40:27;;;;;;;2.33;0.87;;;26.10;26.50;;;;;;4970739;28;20665;-74
2022/04/20 12:42:58;;;;;;;1.70;0.80;;;25.80;26.60;;;;;;4972546;28;20658;-74
2022/04/20 12:45:25;;;;;;;1.70;0.60;;;25.40;26.70;;;;;;4971387;28;20583;-73
2022/04/20 12:48:07;;;;;;;1.70;0.87;;;25.30;27.10;;;;;;4970552;28;20684;-74
2022/04/20 12:50:38;;;;;;;1.53;0.90;;;25.10;26.90;;;;;;4968380;28;20179;-73
2022/04/20 12:53:04;;;;;;;2.10;0.70;;;25.00;26.80;;;;;;4979243;28;20582;-74
2022/04/20 13:02:01;;;;;;;1.50;0.63;;;24.80;26.80;;;;;;4979669;28;21138;-74
2022/04/20 13:04:12;;;;;;;1.57;0.73;;;24.20;27.30;;;;;;4972710;28;21066;-74
2022/04/20 13:06:38;;;;;;;2.20;0.70;;;23.80;27.20;;;;;;4972599;28;20595;-73
2022/04/20 13:09:03;;;;;;;2.00;0.73;;;23.60;27.20;;;;;;4971232;28;20980;-74
2022/04/20 13:11:29;;;;;;;3.17;0.80;;;23.40;27.70;;;;;;4963541;28;20675;-73
2022/04/20 13:13:59;;;;;;;1.40;0.80;;;23.10;27.70;;;;;;4986869;28;20219;-73
2022/04/20 13:16:25;;;;;;;3.30;1.00;;;22.70;27.80;;;;;;4987706;28;20661;-73
2022/04/20 13:18:53;;;;;;;3.30;0.70;;;22.50;27.50;;;;;;4957731;28;20596;-73
2022/04/20 13:21:19;;;;;;;1.37;0.67;;;22.40;27.60;;;;;;4982945;28;20941;-73
2022/04/20 13:23:47;;;;;;;1.57;0.70;;;22.20;27.90;;;;;;4982552;28;21201;-73
2022/04/20 13:28:57;;;;;;;2.63;0.80;;;21.90;28.70;;;;;;4975742;28;20720;-74
2022/04/20 13:31:23;;;;;;;1.77;0.80;;;21.80;28.50;;;;;;4981745;28;20687;-73
2022/04/20 13:33:49;;;;;;;2.40;1.00;;;21.70;28.30;;;;;;4973438;28;20226;-73
2022/04/20 13:36:15;;;;;;;3.80;0.80;;;21.70;28.80;;;;;;4979932;28;20195;-73
2022/04/20 13:38:40;;;;;;;1.80;0.80;;;21.70;28.60;;;;;;4973842;28;20598;-73
2022/04/20 13:41:07;;;;;;;1.50;0.87;;;21.70;28.90;;;;;;4986737;28;20179;-73
2022/04/20 13:43:33;;;;;;;1.77;0.80;;;21.50;28.90;;;;;;4957359;28;20203;-73
2022/04/20 13:45:59;;;;;;;8.13;1.33;;;21.50;29.00;;;;;;4985244;28;20567;-73
2022/04/20 13:48:25;;;;;;;2.60;0.70;;;21.50;29.20;;;;;;4976517;28;21077;-73
2022/04/20 13:50:51;;;;;;;2.10;0.80;;;21.50;29.00;;;;;;4979134;28;20550;-74
2022/04/20 13:53:16;;;;;;;2.93;1.00;;;21.50;29.10;;;;;;4983766;28;20266;-74
2022/04/20 13:55:42;;;;;;;3.00;0.90;;;21.50;29.20;;;;;;4987320;28;20183;-74